sensor_id;sensor_type;location;lat;lon;timestamp;temperature;humidity
27848;DHT22;15212;48.830;8.730;2022-12-18T00:01:33;-6.00;99.90
27848;DHT22;15212;48.830;8.730;2022-12-18T00:04:04;-6.00;99.90
27848;DHT22;15212;48.830;8.730;2022-12-18T00:06:35;-6.00;99.90
27848;DHT22;15212;48.830;8.730;2022-12-18T00:09:04;-6.00;99.90
27848;DHT22;15212;48.830;8.730;2022-12-18T00:11:32;-6.00;99.90
27848;DHT22;15212;48.830;8.730;2022-12-18T00:14:00;-6.00;99.90
27848;DHT22;15212;48.830;8.730;2022-12-18T00:16:29;-6.10;99.90
27848;DHT22;15212;48.830;8.730;2022-12-18T00:19:00;-6.10;99.90
27848;DHT22;15212;48.830;8.730;2022-12-18T00:21:30;-6.10;99.90
27848;DHT22;15212;48.830;8.730;2022-12-18T00:23:59;-6.10;99.90
27848;DHT22;15212;48.830;8.730;2022-12-18T00:26:30;-6.10;99.90
27848;DHT22;15212;48.830;8.730;2022-12-18T00:29:03;-6.10;99.90
27848;DHT22;15212;48.830;8.730;2022-12-18T00:31:34;-6.10;99.90
27848;DHT22;15212;48.830;8.730;2022-12-18T00:34:22;-6.10;99.90
27848;DHT22;15212;48.830;8.730;2022-12-18T00:36:50;-6.10;99.90
27848;DHT22;15212;48.830;8.730;2022-12-18T00:39:19;-6.20;99.90
27848;DHT22;15212;48.830;8.730;2022-12-18T00:41:47;-6.20;99.90
27848;DHT22;15212;48.830;8.730;2022-12-18T00:44:33;-6.20;99.90
27848;DHT22;15212;48.830;8.730;2022-12-18T00:47:02;-6.30;99.90
27848;DHT22;15212;48.830;8.730;2022-12-18T00:49:30;-6.30;99.90
27848;DHT22;15212;48.830;8.730;2022-12-18T00:51:58;-6.30;99.90
27848;DHT22;15212;48.830;8.730;2022-12-18T00:54:27;-6.30;99.90
27848;DHT22;15212;48.830;8.730;2022-12-18T00:56:55;-6.30;99.90
27848;DHT22;15212;48.830;8.730;2022-12-18T00:59:24;-6.30;99.90
27848;DHT22;15212;48.830;8.730;2022-12-18T01:01:52;-6.30;99.90
27848;DHT22;15212;48.830;8.730;2022-12-18T01:04:20;-6.40;99.90
27848;DHT22;15212;48.830;8.730;2022-12-18T01:06:49;-6.40;99.90
27848;DHT22;15212;48.830;8.730;2022-12-18T01:09:17;-6.40;99.90
27848;DHT22;15212;48.830;8.730;2022-12-18T01:11:46;-6.40;99.90
27848;DHT22;15212;48.830;8.730;2022-12-18T01:14:14;-6.40;99.90
27848;DHT22;15212;48.830;8.730;2022-12-18T01:16:43;-6.40;99.90
27848;DHT22;15212;48.830;8.730;2022-12-18T01:19:11;-6.40;99.90
27848;DHT22;15212;48.830;8.730;2022-12-18T01:21:39;-6.40;99.90
27848;DHT22;15212;48.830;8.730;2022-12-18T01:24:09;-6.40;99.90
27848;DHT22;15212;48.830;8.730;2022-12-18T01:26:38;-6.40;99.90
27848;DHT22;15212;48.830;8.730;2022-12-18T01:29:06;-6.40;99.90
27848;DHT22;15212;48.830;8.730;2022-12-18T01:31:35;-6.40;99.90
27848;DHT22;15212;48.830;8.730;2022-12-18T01:34:05;-6.50;99.90
27848;DHT22;15212;48.830;8.730;2022-12-18T01:36:35;-6.50;99.90
27848;DHT22;15212;48.830;8.730;2022-12-18T01:39:08;-6.50;99.90
27848;DHT22;15212;48.830;8.730;2022-12-18T01:41:41;-6.50;99.90
27848;DHT22;15212;48.830;8.730;2022-12-18T01:47:25;-6.60;99.90
27848;DHT22;15212;48.830;8.730;2022-12-18T01:49:59;-6.60;99.90
27848;DHT22;15212;48.830;8.730;2022-12-18T01:52:31;-6.60;99.90
27848;DHT22;15212;48.830;8.730;2022-12-18T01:55:02;-6.70;99.90
27848;DHT22;15212;48.830;8.730;2022-12-18T01:57:33;-6.60;99.90
27848;DHT22;15212;48.830;8.730;2022-12-18T02:00:05;-6.60;99.90
27848;DHT22;15212;48.830;8.730;2022-12-18T02:02:35;-6.60;99.90
27848;DHT22;15212;48.830;8.730;2022-12-18T02:05:03;-6.60;99.90
27848;DHT22;15212;48.830;8.730;2022-12-18T02:07:44;-6.60;99.90
27848;DHT22;15212;48.830;8.730;2022-12-18T02:10:26;-6.70;99.90
27848;DHT22;15212;48.830;8.730;2022-12-18T02:13:04;-6.60;99.90
27848;DHT22;15212;48.830;8.730;2022-12-18T02:15:59;-6.60;99.90
27848;DHT22;15212;48.830;8.730;2022-12-18T02:18:40;-6.60;99.90
27848;DHT22;15212;48.830;8.730;2022-12-18T02:21:20;-6.60;99.90
27848;DHT22;15212;48.830;8.730;2022-12-18T02:24:39;-6.60;99.90
27848;DHT22;15212;48.830;8.730;2022-12-18T02:27:30;-6.60;99.90
27848;DHT22;15212;48.830;8.730;2022-12-18T02:30:01;-6.60;99.90
27848;DHT22;15212;48.830;8.730;2022-12-18T02:32:37;-6.50;99.90
27848;DHT22;15212;48.830;8.730;2022-12-18T02:35:10;-6.50;99.90
27848;DHT22;15212;48.830;8.730;2022-12-18T02:37:41;-6.50;99.90
27848;DHT22;15212;48.830;8.730;2022-12-18T02:40:12;-6.50;99.90
27848;DHT22;15212;48.830;8.730;2022-12-18T02:42:42;-6.50;99.90
27848;DHT22;15212;48.830;8.730;2022-12-18T02:45:10;-6.50;99.90
27848;DHT22;15212;48.830;8.730;2022-12-18T02:47:42;-6.40;99.90
27848;DHT22;15212;48.830;8.730;2022-12-18T02:50:40;-6.40;99.90
27848;DHT22;15212;48.830;8.730;2022-12-18T02:53:17;-6.40;99.90
27848;DHT22;15212;48.830;8.730;2022-12-18T02:59:02;-6.40;99.90
27848;DHT22;15212;48.830;8.730;2022-12-18T03:04:49;-6.30;99.90
27848;DHT22;15212;48.830;8.730;2022-12-18T03:07:23;-6.30;99.90
27848;DHT22;15212;48.830;8.730;2022-12-18T03:09:53;-6.30;99.90
27848;DHT22;15212;48.830;8.730;2022-12-18T03:12:27;-6.30;99.90
27848;DHT22;15212;48.830;8.730;2022-12-18T03:15:07;-6.30;99.90
27848;DHT22;15212;48.830;8.730;2022-12-18T03:17:37;-6.30;99.90
27848;DHT22;15212;48.830;8.730;2022-12-18T03:20:13;-6.30;99.90
27848;DHT22;15212;48.830;8.730;2022-12-18T03:22:42;-6.40;99.90
27848;DHT22;15212;48.830;8.730;2022-12-18T03:25:13;-6.40;99.90
27848;DHT22;15212;48.830;8.730;2022-12-18T03:27:50;-6.40;99.90
27848;DHT22;15212;48.830;8.730;2022-12-18T03:30:21;-6.50;99.90
27848;DHT22;15212;48.830;8.730;2022-12-18T03:32:58;-6.60;99.90
27848;DHT22;15212;48.830;8.730;2022-12-18T03:35:33;-6.60;99.90
27848;DHT22;15212;48.830;8.730;2022-12-18T03:38:04;-6.70;99.90
27848;DHT22;15212;48.830;8.730;2022-12-18T03:40:41;-6.80;99.90
27848;DHT22;15212;48.830;8.730;2022-12-18T03:43:18;-6.90;99.90
27848;DHT22;15212;48.830;8.730;2022-12-18T03:45:51;-7.00;99.90
27848;DHT22;15212;48.830;8.730;2022-12-18T03:48:29;-7.10;99.90
27848;DHT22;15212;48.830;8.730;2022-12-18T03:51:06;-7.10;99.90
27848;DHT22;15212;48.830;8.730;2022-12-18T03:53:44;-7.20;99.90
27848;DHT22;15212;48.830;8.730;2022-12-18T03:56:21;-7.20;99.90
27848;DHT22;15212;48.830;8.730;2022-12-18T03:58:53;-7.30;99.90
27848;DHT22;15212;48.830;8.730;2022-12-18T04:01:25;-7.30;99.90
27848;DHT22;15212;48.830;8.730;2022-12-18T04:03:58;-7.40;99.90
27848;DHT22;15212;48.830;8.730;2022-12-18T04:06:29;-7.40;99.90
27848;DHT22;15212;48.830;8.730;2022-12-18T04:08:58;-7.30;99.90
27848;DHT22;15212;48.830;8.730;2022-12-18T04:11:27;-7.30;99.90
27848;DHT22;15212;48.830;8.730;2022-12-18T04:13:57;-7.30;99.90
27848;DHT22;15212;48.830;8.730;2022-12-18T04:16:26;-7.20;99.90
27848;DHT22;15212;48.830;8.730;2022-12-18T04:18:55;-7.20;99.90
27848;DHT22;15212;48.830;8.730;2022-12-18T04:21:23;-7.20;99.90
27848;DHT22;15212;48.830;8.730;2022-12-18T04:23:51;-7.20;99.90
27848;DHT22;15212;48.830;8.730;2022-12-18T04:26:20;-7.20;99.90
27848;DHT22;15212;48.830;8.730;2022-12-18T04:28:48;-7.10;99.90
27848;DHT22;15212;48.830;8.730;2022-12-18T04:31:16;-7.10;99.90
27848;DHT22;15212;48.830;8.730;2022-12-18T04:33:45;-7.10;99.90
27848;DHT22;15212;48.830;8.730;2022-12-18T04:36:13;-7.10;99.90
27848;DHT22;15212;48.830;8.730;2022-12-18T04:38:42;-7.10;99.90
27848;DHT22;15212;48.830;8.730;2022-12-18T04:41:13;-7.20;99.90
27848;DHT22;15212;48.830;8.730;2022-12-18T04:43:41;-7.20;99.90
27848;DHT22;15212;48.830;8.730;2022-12-18T04:46:10;-7.20;99.90
27848;DHT22;15212;48.830;8.730;2022-12-18T04:48:38;-7.30;99.90
27848;DHT22;15212;48.830;8.730;2022-12-18T04:51:07;-7.30;99.90
27848;DHT22;15212;48.830;8.730;2022-12-18T04:53:35;-7.30;99.90
27848;DHT22;15212;48.830;8.730;2022-12-18T04:56:12;-7.40;99.90
27848;DHT22;15212;48.830;8.730;2022-12-18T04:58:43;-7.40;99.90
27848;DHT22;15212;48.830;8.730;2022-12-18T05:01:14;-7.40;99.90
27848;DHT22;15212;48.830;8.730;2022-12-18T05:03:43;-7.40;99.90
27848;DHT22;15212;48.830;8.730;2022-12-18T05:06:12;-7.30;99.90
27848;DHT22;15212;48.830;8.730;2022-12-18T05:08:40;-7.30;99.90
27848;DHT22;15212;48.830;8.730;2022-12-18T05:11:11;-7.30;99.90
27848;DHT22;15212;48.830;8.730;2022-12-18T05:13:44;-7.40;99.90
27848;DHT22;15212;48.830;8.730;2022-12-18T05:16:14;-7.40;99.90
27848;DHT22;15212;48.830;8.730;2022-12-18T05:18:42;-7.50;99.90
27848;DHT22;15212;48.830;8.730;2022-12-18T05:21:10;-7.60;99.90
27848;DHT22;15212;48.830;8.730;2022-12-18T05:23:39;-7.60;99.90
27848;DHT22;15212;48.830;8.730;2022-12-18T05:26:07;-7.60;99.90
27848;DHT22;15212;48.830;8.730;2022-12-18T05:28:36;-7.50;99.90
27848;DHT22;15212;48.830;8.730;2022-12-18T05:31:05;-7.50;99.90
27848;DHT22;15212;48.830;8.730;2022-12-18T05:33:34;-7.40;99.90
27848;DHT22;15212;48.830;8.730;2022-12-18T05:36:06;-7.30;99.90
27848;DHT22;15212;48.830;8.730;2022-12-18T05:38:36;-7.30;99.90
27848;DHT22;15212;48.830;8.730;2022-12-18T05:41:06;-7.20;99.90
27848;DHT22;15212;48.830;8.730;2022-12-18T05:43:37;-7.20;99.90
27848;DHT22;15212;48.830;8.730;2022-12-18T05:46:08;-7.20;99.90
27848;DHT22;15212;48.830;8.730;2022-12-18T05:48:41;-7.20;99.90
27848;DHT22;15212;48.830;8.730;2022-12-18T05:51:15;-7.20;99.90
27848;DHT22;15212;48.830;8.730;2022-12-18T05:53:43;-7.20;99.90
27848;DHT22;15212;48.830;8.730;2022-12-18T05:56:15;-7.20;99.90
27848;DHT22;15212;48.830;8.730;2022-12-18T05:58:44;-7.20;99.90
27848;DHT22;15212;48.830;8.730;2022-12-18T06:01:22;-7.20;99.90
27848;DHT22;15212;48.830;8.730;2022-12-18T06:03:52;-7.30;99.90
27848;DHT22;15212;48.830;8.730;2022-12-18T06:06:23;-7.40;99.90
27848;DHT22;15212;48.830;8.730;2022-12-18T06:08:54;-7.40;99.90
27848;DHT22;15212;48.830;8.730;2022-12-18T06:11:26;-7.40;99.90
27848;DHT22;15212;48.830;8.730;2022-12-18T06:13:56;-7.40;99.90
27848;DHT22;15212;48.830;8.730;2022-12-18T06:16:24;-7.50;99.90
27848;DHT22;15212;48.830;8.730;2022-12-18T06:18:53;-7.50;99.90
27848;DHT22;15212;48.830;8.730;2022-12-18T06:21:27;-7.50;99.90
27848;DHT22;15212;48.830;8.730;2022-12-18T06:23:56;-7.60;99.90
27848;DHT22;15212;48.830;8.730;2022-12-18T06:26:25;-7.70;99.90
27848;DHT22;15212;48.830;8.730;2022-12-18T06:28:53;-7.70;99.90
27848;DHT22;15212;48.830;8.730;2022-12-18T06:31:21;-7.80;99.90
27848;DHT22;15212;48.830;8.730;2022-12-18T06:33:50;-7.80;99.90
27848;DHT22;15212;48.830;8.730;2022-12-18T06:36:18;-7.90;99.90
27848;DHT22;15212;48.830;8.730;2022-12-18T06:38:47;-7.90;99.90
27848;DHT22;15212;48.830;8.730;2022-12-18T06:41:18;-7.90;99.90
27848;DHT22;15212;48.830;8.730;2022-12-18T06:43:47;-7.80;99.90
27848;DHT22;15212;48.830;8.730;2022-12-18T06:46:16;-7.80;99.90
27848;DHT22;15212;48.830;8.730;2022-12-18T06:48:46;-7.80;99.90
27848;DHT22;15212;48.830;8.730;2022-12-18T06:51:20;-7.80;99.90
27848;DHT22;15212;48.830;8.730;2022-12-18T06:53:50;-7.80;99.90
27848;DHT22;15212;48.830;8.730;2022-12-18T06:56:18;-7.70;99.90
27848;DHT22;15212;48.830;8.730;2022-12-18T06:58:46;-7.70;99.90
27848;DHT22;15212;48.830;8.730;2022-12-18T07:01:15;-7.70;99.90
27848;DHT22;15212;48.830;8.730;2022-12-18T07:03:43;-7.60;99.90
27848;DHT22;15212;48.830;8.730;2022-12-18T07:06:19;-7.60;99.90
27848;DHT22;15212;48.830;8.730;2022-12-18T07:08:45;-7.60;99.90
27848;DHT22;15212;48.830;8.730;2022-12-18T07:11:14;-7.50;99.90
27848;DHT22;15212;48.830;8.730;2022-12-18T07:13:43;-7.40;99.90
27848;DHT22;15212;48.830;8.730;2022-12-18T07:16:14;-7.40;99.90
27848;DHT22;15212;48.830;8.730;2022-12-18T07:18:44;-7.30;99.90
27848;DHT22;15212;48.830;8.730;2022-12-18T07:21:15;-7.20;99.90
27848;DHT22;15212;48.830;8.730;2022-12-18T07:23:45;-7.20;99.90
27848;DHT22;15212;48.830;8.730;2022-12-18T07:26:16;-7.10;99.90
27848;DHT22;15212;48.830;8.730;2022-12-18T07:28:47;-7.10;99.90
27848;DHT22;15212;48.830;8.730;2022-12-18T07:31:20;-7.10;99.90
27848;DHT22;15212;48.830;8.730;2022-12-18T07:33:50;-7.00;99.90
27848;DHT22;15212;48.830;8.730;2022-12-18T07:36:19;-7.00;99.90
27848;DHT22;15212;48.830;8.730;2022-12-18T07:38:49;-6.90;99.90
27848;DHT22;15212;48.830;8.730;2022-12-18T07:41:19;-6.90;99.90
27848;DHT22;15212;48.830;8.730;2022-12-18T07:43:48;-6.80;99.90
27848;DHT22;15212;48.830;8.730;2022-12-18T07:46:17;-6.80;99.90
27848;DHT22;15212;48.830;8.730;2022-12-18T07:48:45;-6.70;99.90
27848;DHT22;15212;48.830;8.730;2022-12-18T07:51:14;-6.60;99.90
27848;DHT22;15212;48.830;8.730;2022-12-18T07:53:42;-6.60;99.90
27848;DHT22;15212;48.830;8.730;2022-12-18T07:56:12;-6.50;99.90
27848;DHT22;15212;48.830;8.730;2022-12-18T07:58:41;-6.50;99.90
27848;DHT22;15212;48.830;8.730;2022-12-18T08:01:12;-6.40;99.90
27848;DHT22;15212;48.830;8.730;2022-12-18T08:03:40;-6.40;99.90
27848;DHT22;15212;48.830;8.730;2022-12-18T08:06:10;-6.30;99.90
27848;DHT22;15212;48.830;8.730;2022-12-18T08:08:38;-6.30;99.90
27848;DHT22;15212;48.830;8.730;2022-12-18T08:11:08;-6.20;99.90
27848;DHT22;15212;48.830;8.730;2022-12-18T08:13:37;-6.20;99.90
27848;DHT22;15212;48.830;8.730;2022-12-18T08:16:07;-6.10;99.90
27848;DHT22;15212;48.830;8.730;2022-12-18T08:18:37;-6.00;99.90
27848;DHT22;15212;48.830;8.730;2022-12-18T08:23:49;-5.90;99.90
27848;DHT22;15212;48.830;8.730;2022-12-18T08:26:18;-5.80;99.90
27848;DHT22;15212;48.830;8.730;2022-12-18T08:28:47;-5.70;99.90
27848;DHT22;15212;48.830;8.730;2022-12-18T08:31:16;-5.60;99.90
27848;DHT22;15212;48.830;8.730;2022-12-18T08:33:47;-5.50;99.90
27848;DHT22;15212;48.830;8.730;2022-12-18T08:36:21;-5.40;99.90
27848;DHT22;15212;48.830;8.730;2022-12-18T08:38:50;-5.30;99.90
27848;DHT22;15212;48.830;8.730;2022-12-18T08:41:19;-5.20;99.90
27848;DHT22;15212;48.830;8.730;2022-12-18T08:43:48;-5.00;99.90
27848;DHT22;15212;48.830;8.730;2022-12-18T08:46:40;-4.90;99.90
27848;DHT22;15212;48.830;8.730;2022-12-18T08:49:11;-4.80;99.90
27848;DHT22;15212;48.830;8.730;2022-12-18T08:51:40;-4.60;99.90
27848;DHT22;15212;48.830;8.730;2022-12-18T08:54:13;-4.50;99.90
27848;DHT22;15212;48.830;8.730;2022-12-18T08:56:41;-4.50;99.90
27848;DHT22;15212;48.830;8.730;2022-12-18T08:59:10;-4.40;99.90
27848;DHT22;15212;48.830;8.730;2022-12-18T09:01:38;-4.40;99.90
27848;DHT22;15212;48.830;8.730;2022-12-18T09:04:08;-4.40;99.90
27848;DHT22;15212;48.830;8.730;2022-12-18T09:06:37;-4.40;99.90
27848;DHT22;15212;48.830;8.730;2022-12-18T09:09:05;-4.30;99.90
27848;DHT22;15212;48.830;8.730;2022-12-18T09:11:34;-4.30;99.90
27848;DHT22;15212;48.830;8.730;2022-12-18T09:14:02;-4.30;99.90
27848;DHT22;15212;48.830;8.730;2022-12-18T09:16:31;-4.30;99.90
27848;DHT22;15212;48.830;8.730;2022-12-18T09:19:03;-4.30;99.90
27848;DHT22;15212;48.830;8.730;2022-12-18T09:21:34;-4.30;99.90
27848;DHT22;15212;48.830;8.730;2022-12-18T09:24:03;-4.30;99.90
27848;DHT22;15212;48.830;8.730;2022-12-18T09:26:32;-4.30;99.90
27848;DHT22;15212;48.830;8.730;2022-12-18T09:29:00;-4.20;99.90
27848;DHT22;15212;48.830;8.730;2022-12-18T09:31:30;-4.20;99.90
27848;DHT22;15212;48.830;8.730;2022-12-18T09:33:58;-4.10;99.90
27848;DHT22;15212;48.830;8.730;2022-12-18T09:36:27;-4.10;99.90
27848;DHT22;15212;48.830;8.730;2022-12-18T09:38:55;-4.10;99.90
27848;DHT22;15212;48.830;8.730;2022-12-18T09:44:13;-4.10;99.90
27848;DHT22;15212;48.830;8.730;2022-12-18T09:47:13;-4.00;99.90
27848;DHT22;15212;48.830;8.730;2022-12-18T09:49:44;-4.00;99.90
27848;DHT22;15212;48.830;8.730;2022-12-18T09:52:27;-3.80;99.90
27848;DHT22;15212;48.830;8.730;2022-12-18T10:00:59;-3.60;99.90
27848;DHT22;15212;48.830;8.730;2022-12-18T10:03:27;-3.40;99.90
27848;DHT22;15212;48.830;8.730;2022-12-18T10:06:18;-3.30;99.90
27848;DHT22;15212;48.830;8.730;2022-12-18T10:08:58;-3.20;99.90
27848;DHT22;15212;48.830;8.730;2022-12-18T10:15:03;-3.00;99.90
27848;DHT22;15212;48.830;8.730;2022-12-18T10:17:46;-2.90;99.90
27848;DHT22;15212;48.830;8.730;2022-12-18T10:20:38;-2.90;99.90
27848;DHT22;15212;48.830;8.730;2022-12-18T10:23:39;-2.90;99.90
27848;DHT22;15212;48.830;8.730;2022-12-18T10:26:07;-2.80;99.90
27848;DHT22;15212;48.830;8.730;2022-12-18T10:28:40;-2.70;99.90
27848;DHT22;15212;48.830;8.730;2022-12-18T10:31:18;-2.60;99.90
27848;DHT22;15212;48.830;8.730;2022-12-18T10:33:48;-2.60;99.90
27848;DHT22;15212;48.830;8.730;2022-12-18T10:36:16;-2.60;99.90
27848;DHT22;15212;48.830;8.730;2022-12-18T10:38:45;-2.50;99.90
27848;DHT22;15212;48.830;8.730;2022-12-18T10:44:17;-2.40;99.90
27848;DHT22;15212;48.830;8.730;2022-12-18T10:46:49;-2.40;99.90
27848;DHT22;15212;48.830;8.730;2022-12-18T10:49:25;-2.40;99.90
27848;DHT22;15212;48.830;8.730;2022-12-18T10:54:53;-2.50;99.90
27848;DHT22;15212;48.830;8.730;2022-12-18T10:57:29;-2.50;99.90
27848;DHT22;15212;48.830;8.730;2022-12-18T11:00:29;-2.60;99.90
27848;DHT22;15212;48.830;8.730;2022-12-18T11:02:58;-2.60;99.90
27848;DHT22;15212;48.830;8.730;2022-12-18T11:05:32;-2.60;99.90
27848;DHT22;15212;48.830;8.730;2022-12-18T11:08:03;-2.70;99.90
27848;DHT22;15212;48.830;8.730;2022-12-18T11:10:36;-2.60;99.90
27848;DHT22;15212;48.830;8.730;2022-12-18T11:13:15;-2.50;99.90
27848;DHT22;15212;48.830;8.730;2022-12-18T11:15:45;-2.50;99.90
27848;DHT22;15212;48.830;8.730;2022-12-18T11:18:33;-2.40;99.90
27848;DHT22;15212;48.830;8.730;2022-12-18T11:21:12;-2.40;99.90
27848;DHT22;15212;48.830;8.730;2022-12-18T11:24:17;-2.40;99.90
27848;DHT22;15212;48.830;8.730;2022-12-18T11:26:19;-2.40;99.90
27848;DHT22;15212;48.830;8.730;2022-12-18T11:28:50;-2.40;99.90
27848;DHT22;15212;48.830;8.730;2022-12-18T11:31:30;-2.50;99.90
27848;DHT22;15212;48.830;8.730;2022-12-18T11:34:03;-2.60;99.90
27848;DHT22;15212;48.830;8.730;2022-12-18T11:36:36;-2.70;99.90
27848;DHT22;15212;48.830;8.730;2022-12-18T11:39:10;-2.70;99.90
27848;DHT22;15212;48.830;8.730;2022-12-18T11:41:57;-2.70;99.90
27848;DHT22;15212;48.830;8.730;2022-12-18T11:50:49;-2.70;99.90
27848;DHT22;15212;48.830;8.730;2022-12-18T11:53:26;-2.70;99.90
27848;DHT22;15212;48.830;8.730;2022-12-18T12:01:57;-2.60;99.90
27848;DHT22;15212;48.830;8.730;2022-12-18T12:07:32;-2.60;99.90
27848;DHT22;15212;48.830;8.730;2022-12-18T12:10:08;-2.60;99.90
27848;DHT22;15212;48.830;8.730;2022-12-18T12:13:13;-2.70;99.90
27848;DHT22;15212;48.830;8.730;2022-12-18T12:16:24;-2.70;99.90
27848;DHT22;15212;48.830;8.730;2022-12-18T12:21:58;-2.50;99.90
27848;DHT22;15212;48.830;8.730;2022-12-18T12:27:39;-2.50;99.90
27848;DHT22;15212;48.830;8.730;2022-12-18T12:30:21;-2.50;99.90
27848;DHT22;15212;48.830;8.730;2022-12-18T12:33:14;-2.50;99.90
27848;DHT22;15212;48.830;8.730;2022-12-18T12:38:41;-2.40;99.90
27848;DHT22;15212;48.830;8.730;2022-12-18T12:41:18;-2.40;99.90
27848;DHT22;15212;48.830;8.730;2022-12-18T12:44:15;-2.30;99.90
27848;DHT22;15212;48.830;8.730;2022-12-18T12:46:45;-2.40;99.90
27848;DHT22;15212;48.830;8.730;2022-12-18T12:49:18;-2.40;99.90
27848;DHT22;15212;48.830;8.730;2022-12-18T12:54:35;-2.30;99.90
27848;DHT22;15212;48.830;8.730;2022-12-18T12:57:09;-2.20;99.90
27848;DHT22;15212;48.830;8.730;2022-12-18T13:08:09;-2.00;99.90
27848;DHT22;15212;48.830;8.730;2022-12-18T13:10:43;-2.00;99.90
27848;DHT22;15212;48.830;8.730;2022-12-18T13:13:12;-2.00;99.90
27848;DHT22;15212;48.830;8.730;2022-12-18T13:15:47;-2.00;99.90
27848;DHT22;15212;48.830;8.730;2022-12-18T13:18:24;-2.00;99.90
27848;DHT22;15212;48.830;8.730;2022-12-18T13:21:03;-2.00;99.90
27848;DHT22;15212;48.830;8.730;2022-12-18T13:23:36;-2.00;99.90
27848;DHT22;15212;48.830;8.730;2022-12-18T13:28:56;-2.00;99.90
27848;DHT22;15212;48.830;8.730;2022-12-18T13:34:21;-2.00;99.90
27848;DHT22;15212;48.830;8.730;2022-12-18T13:36:52;-1.90;99.90
27848;DHT22;15212;48.830;8.730;2022-12-18T13:39:24;-2.00;99.90
27848;DHT22;15212;48.830;8.730;2022-12-18T13:44:41;-2.00;99.90
27848;DHT22;15212;48.830;8.730;2022-12-18T13:47:32;-2.00;99.90
27848;DHT22;15212;48.830;8.730;2022-12-18T13:50:09;-2.00;99.90
27848;DHT22;15212;48.830;8.730;2022-12-18T13:52:38;-2.10;99.90
27848;DHT22;15212;48.830;8.730;2022-12-18T13:55:14;-2.00;99.90
27848;DHT22;15212;48.830;8.730;2022-12-18T13:57:40;-2.00;99.90
27848;DHT22;15212;48.830;8.730;2022-12-18T14:00:28;-2.00;99.90
27848;DHT22;15212;48.830;8.730;2022-12-18T14:02:58;-2.00;99.90
27848;DHT22;15212;48.830;8.730;2022-12-18T14:05:32;-2.00;99.90
27848;DHT22;15212;48.830;8.730;2022-12-18T14:08:08;-2.00;99.90
27848;DHT22;15212;48.830;8.730;2022-12-18T14:10:40;-2.10;99.90
27848;DHT22;15212;48.830;8.730;2022-12-18T14:13:13;-2.10;99.90
27848;DHT22;15212;48.830;8.730;2022-12-18T14:15:46;-2.20;99.90
27848;DHT22;15212;48.830;8.730;2022-12-18T14:21:27;-2.20;99.90
27848;DHT22;15212;48.830;8.730;2022-12-18T14:26:46;-2.20;99.90
27848;DHT22;15212;48.830;8.730;2022-12-18T14:29:27;-2.30;99.90
27848;DHT22;15212;48.830;8.730;2022-12-18T14:32:17;-2.30;99.90
27848;DHT22;15212;48.830;8.730;2022-12-18T14:34:52;-2.30;99.90
27848;DHT22;15212;48.830;8.730;2022-12-18T14:37:24;-2.30;99.90
27848;DHT22;15212;48.830;8.730;2022-12-18T14:39:55;-2.30;99.90
27848;DHT22;15212;48.830;8.730;2022-12-18T14:42:29;-2.40;99.90
27848;DHT22;15212;48.830;8.730;2022-12-18T14:48:55;-2.40;99.90
27848;DHT22;15212;48.830;8.730;2022-12-18T14:50:40;-2.40;99.90
27848;DHT22;15212;48.830;8.730;2022-12-18T14:53:31;-2.50;99.90
27848;DHT22;15212;48.830;8.730;2022-12-18T14:56:18;-2.50;99.90
27848;DHT22;15212;48.830;8.730;2022-12-18T14:58:50;-2.50;99.90
27848;DHT22;15212;48.830;8.730;2022-12-18T15:04:22;-2.60;99.90
27848;DHT22;15212;48.830;8.730;2022-12-18T15:06:48;-2.60;99.90
27848;DHT22;15212;48.830;8.730;2022-12-18T15:09:25;-2.60;99.90
27848;DHT22;15212;48.830;8.730;2022-12-18T15:12:00;-2.60;99.90
27848;DHT22;15212;48.830;8.730;2022-12-18T15:14:39;-2.60;99.90
27848;DHT22;15212;48.830;8.730;2022-12-18T15:17:22;-2.60;99.90
27848;DHT22;15212;48.830;8.730;2022-12-18T15:19:59;-2.60;99.90
27848;DHT22;15212;48.830;8.730;2022-12-18T15:22:33;-2.60;99.90
27848;DHT22;15212;48.830;8.730;2022-12-18T15:25:03;-2.60;99.90
27848;DHT22;15212;48.830;8.730;2022-12-18T15:27:36;-2.60;99.90
27848;DHT22;15212;48.830;8.730;2022-12-18T15:32:40;-2.70;99.90
27848;DHT22;15212;48.830;8.730;2022-12-18T15:37:41;-2.70;99.90
27848;DHT22;15212;48.830;8.730;2022-12-18T15:40:15;-2.80;99.90
27848;DHT22;15212;48.830;8.730;2022-12-18T15:42:46;-2.80;99.90
27848;DHT22;15212;48.830;8.730;2022-12-18T15:45:33;-2.70;99.90
27848;DHT22;15212;48.830;8.730;2022-12-18T15:48:02;-2.70;99.90
27848;DHT22;15212;48.830;8.730;2022-12-18T15:50:32;-2.80;99.90
27848;DHT22;15212;48.830;8.730;2022-12-18T15:53:00;-2.80;99.90
27848;DHT22;15212;48.830;8.730;2022-12-18T15:55:28;-2.80;99.90
27848;DHT22;15212;48.830;8.730;2022-12-18T15:58:17;-2.80;99.90
27848;DHT22;15212;48.830;8.730;2022-12-18T16:00:47;-2.80;99.90
27848;DHT22;15212;48.830;8.730;2022-12-18T16:03:15;-2.80;99.90
27848;DHT22;15212;48.830;8.730;2022-12-18T16:05:43;-2.80;99.90
27848;DHT22;15212;48.830;8.730;2022-12-18T16:08:12;-2.80;99.90
27848;DHT22;15212;48.830;8.730;2022-12-18T16:10:40;-2.80;99.90
27848;DHT22;15212;48.830;8.730;2022-12-18T16:13:11;-2.80;99.90
27848;DHT22;15212;48.830;8.730;2022-12-18T16:15:40;-2.70;99.90
27848;DHT22;15212;48.830;8.730;2022-12-18T16:18:08;-2.70;99.90
27848;DHT22;15212;48.830;8.730;2022-12-18T16:20:38;-2.70;99.90
27848;DHT22;15212;48.830;8.730;2022-12-18T16:23:07;-2.70;99.90
27848;DHT22;15212;48.830;8.730;2022-12-18T16:25:35;-2.70;99.90
27848;DHT22;15212;48.830;8.730;2022-12-18T16:28:04;-2.70;99.90
27848;DHT22;15212;48.830;8.730;2022-12-18T16:30:32;-2.70;99.90
27848;DHT22;15212;48.830;8.730;2022-12-18T16:33:00;-2.60;99.90
27848;DHT22;15212;48.830;8.730;2022-12-18T16:35:29;-2.60;99.90
27848;DHT22;15212;48.830;8.730;2022-12-18T16:37:58;-2.60;99.90
27848;DHT22;15212;48.830;8.730;2022-12-18T16:40:27;-2.60;99.90
27848;DHT22;15212;48.830;8.730;2022-12-18T16:42:55;-2.60;99.90
27848;DHT22;15212;48.830;8.730;2022-12-18T16:45:24;-2.60;99.90
27848;DHT22;15212;48.830;8.730;2022-12-18T16:47:52;-2.60;99.90
27848;DHT22;15212;48.830;8.730;2022-12-18T16:50:20;-2.50;99.90
27848;DHT22;15212;48.830;8.730;2022-12-18T16:52:49;-2.50;99.90
27848;DHT22;15212;48.830;8.730;2022-12-18T16:55:19;-2.50;99.90
27848;DHT22;15212;48.830;8.730;2022-12-18T16:57:48;-2.50;99.90
27848;DHT22;15212;48.830;8.730;2022-12-18T17:00:16;-2.40;99.90
27848;DHT22;15212;48.830;8.730;2022-12-18T17:02:45;-2.40;99.90
27848;DHT22;15212;48.830;8.730;2022-12-18T17:05:13;-2.40;99.90
27848;DHT22;15212;48.830;8.730;2022-12-18T17:07:42;-2.30;99.90
27848;DHT22;15212;48.830;8.730;2022-12-18T17:10:10;-2.30;99.90
27848;DHT22;15212;48.830;8.730;2022-12-18T17:12:38;-2.30;99.90
27848;DHT22;15212;48.830;8.730;2022-12-18T17:15:09;-2.30;99.90
27848;DHT22;15212;48.830;8.730;2022-12-18T17:17:37;-2.20;99.90
27848;DHT22;15212;48.830;8.730;2022-12-18T17:20:06;-2.20;99.90
27848;DHT22;15212;48.830;8.730;2022-12-18T17:22:35;-2.10;99.90
27848;DHT22;15212;48.830;8.730;2022-12-18T17:25:03;-2.10;99.90
27848;DHT22;15212;48.830;8.730;2022-12-18T17:27:33;-2.10;99.90
27848;DHT22;15212;48.830;8.730;2022-12-18T17:30:02;-2.00;99.90
27848;DHT22;15212;48.830;8.730;2022-12-18T17:32:31;-2.00;99.90
27848;DHT22;15212;48.830;8.730;2022-12-18T17:34:59;-2.00;99.90